Terminal Aerodrome Forecast
Issued by NWS Wilmington, OH

Current Version | Previous Version | Graphics & Text | Print | Product List | Glossary On
Versions: 1 2 3 4 5 6 7 8 9 10 11 12 13 14 15
656
FTUS41 KILN 191720
TAFILN
TAF
KILN 191720Z 1918/2018 24012KT P6SM FEW250
     FM192300 23004KT P6SM SKC
     FM201500 20004KT P6SM FEW250=

USA.gov is the U.S. government's official web portal to all federal, state and local government web resources and services.